createdAt,value
2023-05-04T00:00:29.789Z,24.10
2023-05-04T00:04:11.611Z,29.20
2023-05-04T00:07:39.032Z,27.10
2023-05-04T00:11:06.199Z,21.60
2023-05-04T00:14:33.181Z,23.40
2023-05-04T00:18:00.097Z,20.50
2023-05-04T00:21:27.226Z,21.70
2023-05-04T00:24:54.283Z,19.00
2023-05-04T00:28:21.130Z,22.30
2023-05-04T00:31:48.104Z,21.00
2023-05-04T00:35:15.380Z,26.00
2023-05-04T00:38:51.339Z,31.50
2023-05-04T00:42:18.495Z,30.50
2023-05-04T00:45:45.491Z,29.10
2023-05-04T00:49:12.876Z,31.90
2023-05-04T00:52:41.352Z,26.50
2023-05-04T00:56:09.110Z,27.70
2023-05-04T00:59:36.039Z,33.10
2023-05-04T01:03:02.990Z,29.30
2023-05-04T01:06:41.656Z,29.90
2023-05-04T01:10:15.774Z,31.10
2023-05-04T01:13:44.251Z,28.60
2023-05-04T01:17:12.822Z,31.40
2023-05-04T01:20:39.884Z,30.40
2023-05-04T01:24:08.120Z,30.60
2023-05-04T01:27:41.267Z,39.90
2023-05-04T01:31:10.641Z,30.70
2023-05-04T01:38:04.235Z,32.70
2023-05-04T01:41:31.097Z,38.30
2023-05-04T01:44:58.239Z,31.60
2023-05-04T01:48:25.090Z,38.40
2023-05-04T01:51:53.996Z,33.60
2023-05-04T01:55:21.284Z,42.40
2023-05-04T01:58:48.177Z,29.70
2023-05-04T02:02:15.244Z,32.90
2023-05-04T02:05:42.217Z,31.10
2023-05-04T02:09:09.061Z,35.90
2023-05-04T02:12:36.362Z,32.30
2023-05-04T02:16:03.376Z,34.40
2023-05-04T02:19:30.147Z,39.50
2023-05-04T02:22:57.114Z,32.20
2023-05-04T02:26:25.420Z,34.10
2023-05-04T02:29:52.318Z,34.00
2023-05-04T02:33:19.074Z,38.70
2023-05-04T02:36:47.051Z,36.40
2023-05-04T02:40:16.244Z,34.30
2023-05-04T02:43:43.009Z,35.20
2023-05-04T02:47:10.071Z,32.40
2023-05-04T02:50:37.644Z,32.30
2023-05-04T02:54:04.646Z,34.40
2023-05-04T02:57:31.756Z,37.40
2023-05-04T03:00:58.977Z,40.90
2023-05-04T03:04:26.080Z,36.90
2023-05-04T03:07:52.974Z,32.70
2023-05-04T03:11:19.868Z,39.30
2023-05-04T03:14:47.297Z,44.70
2023-05-04T03:18:14.547Z,36.70
2023-05-04T03:21:43.140Z,35.80
2023-05-04T03:25:11.438Z,40.40
2023-05-04T03:28:38.566Z,41.60
2023-05-04T03:32:06.884Z,40.70
2023-05-04T03:35:34.267Z,37.00
2023-05-04T03:39:03.364Z,36.80
2023-05-04T03:42:31.192Z,40.70
2023-05-04T03:45:58.474Z,40.90
2023-05-04T03:49:25.341Z,44.20
2023-05-04T03:52:52.953Z,67.10
2023-05-04T03:56:21.947Z,44.50
2023-05-04T03:59:48.774Z,47.60
2023-05-04T04:03:16.122Z,40.30
2023-05-04T04:06:43.653Z,39.80
2023-05-04T04:10:13.821Z,46.90
2023-05-04T04:13:40.713Z,54.60
2023-05-04T04:17:08.093Z,48.70
2023-05-04T04:20:35.055Z,43.10
2023-05-04T04:24:02.036Z,52.50
2023-05-04T04:27:28.844Z,44.60
2023-05-04T04:30:56.059Z,31.50
2023-05-04T04:34:23.887Z,34.60
2023-05-04T04:37:51.187Z,32.90
2023-05-04T04:41:19.084Z,32.30
2023-05-04T04:44:46.324Z,34.50
2023-05-04T04:48:13.331Z,30.60
2023-05-04T04:51:41.155Z,30.40
2023-05-04T04:55:09.900Z,32.10
2023-05-04T04:58:37.060Z,28.10
2023-05-04T05:02:04.239Z,25.10
2023-05-04T05:05:32.029Z,24.80
2023-05-04T05:08:59.280Z,32.60
2023-05-04T05:12:25.999Z,33.90
2023-05-04T05:15:53.134Z,28.80
2023-05-04T05:19:20.063Z,29.60
2023-05-04T05:22:47.349Z,28.70
2023-05-04T05:26:14.499Z,27.10
2023-05-04T05:29:42.117Z,26.60
2023-05-04T05:33:09.146Z,27.00
2023-05-04T05:36:36.077Z,26.00
2023-05-04T05:40:05.741Z,24.40
2023-05-04T05:43:33.435Z,25.70
2023-05-04T05:47:00.418Z,25.70
2023-05-04T05:50:27.392Z,22.50
2023-05-04T05:53:54.346Z,22.00
2023-05-04T05:57:21.289Z,27.00
2023-05-04T06:00:48.273Z,42.50
2023-05-04T06:04:15.839Z,42.10
2023-05-04T06:07:42.922Z,26.20
2023-05-04T06:11:09.988Z,23.40
2023-05-04T06:14:36.976Z,30.10
2023-05-04T06:18:04.048Z,37.80
2023-05-04T06:21:30.897Z,21.00
2023-05-04T06:25:02.848Z,17.90
2023-05-04T06:28:32.468Z,14.70
2023-05-04T06:32:00.144Z,13.20
2023-05-04T06:35:27.274Z,36.00
2023-05-04T06:38:55.761Z,10.90
2023-05-04T06:42:23.033Z,11.10
2023-05-04T06:45:50.698Z,11.50
2023-05-04T06:49:18.487Z,23.30
2023-05-04T06:52:47.469Z,21.50
2023-05-04T06:56:14.552Z,18.00
2023-05-04T06:59:41.537Z,11.90
2023-05-04T07:03:08.698Z,13.60
2023-05-04T07:06:35.874Z,10.00
2023-05-04T07:10:03.188Z,17.00
2023-05-04T07:13:30.554Z,10.90
2023-05-04T07:16:57.825Z,10.40
2023-05-04T07:20:26.416Z,15.20
2023-05-04T07:23:55.146Z,13.90
2023-05-04T07:27:22.376Z,12.60
2023-05-04T07:30:49.332Z,11.30
2023-05-04T07:34:16.495Z,8.90
2023-05-04T07:37:43.540Z,12.30
2023-05-04T07:41:10.527Z,10.70
2023-05-04T07:44:37.495Z,9.90
2023-05-04T07:48:04.269Z,20.00
2023-05-04T07:51:31.281Z,14.20
2023-05-04T07:54:58.150Z,8.50
2023-05-04T07:58:25.155Z,9.50
2023-05-04T08:01:51.992Z,6.10
2023-05-04T08:05:19.045Z,6.30
2023-05-04T08:08:46.542Z,10.30
2023-05-04T08:12:13.611Z,9.90
2023-05-04T08:15:41.309Z,11.80
2023-05-04T08:19:08.722Z,9.60
2023-05-04T08:22:36.233Z,13.80
2023-05-04T08:26:05.671Z,13.90
2023-05-04T08:29:32.809Z,11.80
2023-05-04T08:33:00.458Z,11.20
2023-05-04T08:36:27.686Z,11.40
2023-05-04T08:39:54.684Z,10.50
2023-05-04T08:43:21.824Z,15.90
2023-05-04T08:46:53.379Z,8.40
2023-05-04T08:50:20.678Z,7.00
2023-05-04T08:53:47.838Z,5.10
2023-05-04T08:57:16.125Z,9.00
2023-05-04T09:00:44.732Z,9.40
2023-05-04T09:04:13.024Z,7.80
2023-05-04T09:07:40.273Z,9.60
2023-05-04T09:11:07.418Z,9.90
2023-05-04T09:14:37.947Z,9.10
2023-05-04T09:18:07.862Z,8.80
2023-05-04T09:21:34.988Z,8.20
2023-05-04T09:25:12.189Z,6.70
2023-05-04T09:28:40.306Z,6.70
2023-05-04T09:32:12.400Z,7.60
2023-05-04T09:35:44.498Z,7.20
2023-05-04T09:39:15.456Z,8.00
2023-05-04T09:42:42.549Z,9.10
2023-05-04T09:46:17.195Z,9.50
2023-05-04T09:49:44.212Z,8.50
2023-05-04T09:53:12.005Z,6.60
2023-05-04T09:56:44.670Z,9.60
2023-05-04T10:00:14.379Z,18.70
2023-05-04T10:03:42.438Z,11.10
2023-05-04T10:07:09.663Z,9.00
2023-05-04T10:10:39.688Z,7.50
2023-05-04T10:14:07.470Z,8.40
2023-05-04T10:17:49.591Z,13.70
2023-05-04T10:21:29.835Z,10.20
2023-05-04T10:25:19.796Z,8.20
2023-05-04T10:28:59.580Z,9.60
2023-05-04T10:32:27.262Z,9.60
2023-05-04T10:35:55.660Z,9.30
2023-05-04T10:39:24.139Z,6.60
2023-05-04T10:42:51.186Z,11.30
2023-05-04T10:46:22.333Z,9.30
2023-05-04T10:49:49.389Z,9.70
2023-05-04T10:53:18.159Z,8.10
2023-05-04T10:56:45.342Z,8.00
2023-05-04T11:00:15.003Z,10.40
2023-05-04T11:07:09.377Z,11.20
2023-05-04T11:10:36.447Z,8.70
2023-05-04T11:14:03.513Z,10.70
2023-05-04T11:17:30.417Z,9.00
2023-05-04T11:20:58.562Z,12.20
2023-05-04T11:24:26.137Z,9.80
2023-05-04T11:27:53.221Z,8.70
2023-05-04T11:31:21.929Z,8.70
2023-05-04T11:34:50.287Z,8.10
2023-05-04T11:38:22.091Z,16.10
2023-05-04T11:41:48.945Z,10.20
2023-05-04T11:45:19.566Z,7.20
2023-05-04T11:48:47.349Z,7.10
2023-05-04T11:52:14.959Z,7.50
2023-05-04T11:55:42.768Z,6.10
2023-05-04T11:59:13.385Z,7.10
2023-05-04T12:02:40.471Z,8.50
2023-05-04T12:06:08.534Z,10.40
2023-05-04T12:09:47.386Z,12.60
2023-05-04T12:13:20.905Z,8.40
2023-05-04T12:17:01.822Z,12.30
2023-05-04T12:20:30.248Z,9.00
2023-05-04T12:23:59.600Z,6.10
2023-05-04T12:27:27.051Z,7.10
2023-05-04T12:30:56.447Z,7.70
2023-05-04T12:34:24.980Z,8.20
2023-05-04T12:37:52.186Z,8.90
2023-05-04T12:41:19.110Z,7.50
2023-05-04T12:44:46.265Z,8.00
2023-05-04T12:48:13.835Z,8.40
2023-05-04T12:51:40.895Z,10.90
2023-05-04T12:55:09.961Z,13.10
2023-05-04T12:58:36.774Z,5.70
2023-05-04T13:02:03.700Z,11.40
2023-05-04T13:05:31.174Z,9.80
2023-05-04T13:08:58.335Z,7.30
2023-05-04T13:12:25.724Z,9.00
2023-05-04T13:15:53.794Z,8.00
2023-05-04T13:19:21.343Z,10.80
2023-05-04T13:22:50.602Z,10.10
2023-05-04T13:26:17.772Z,7.40
2023-05-04T13:29:44.527Z,8.80
2023-05-04T13:33:25.048Z,11.30
2023-05-04T13:36:55.090Z,8.70
2023-05-04T13:40:22.029Z,10.80
2023-05-04T13:43:49.236Z,7.90
2023-05-04T13:47:17.618Z,9.70
2023-05-04T13:50:44.555Z,8.40
2023-05-04T13:54:11.670Z,5.50
2023-05-04T13:57:38.799Z,10.60
2023-05-04T14:01:06.044Z,7.50
2023-05-04T14:04:33.729Z,9.70
2023-05-04T14:08:00.780Z,7.10
2023-05-04T14:11:27.597Z,9.30
2023-05-04T14:14:54.460Z,6.90
2023-05-04T14:18:21.636Z,10.60
2023-05-04T14:21:48.627Z,9.80
2023-05-04T14:25:15.922Z,6.20
2023-05-04T14:28:42.946Z,10.60
2023-05-04T14:32:10.015Z,7.10
2023-05-04T14:35:39.752Z,10.20
2023-05-04T14:39:06.677Z,6.90
2023-05-04T14:42:33.788Z,9.30
2023-05-04T14:46:01.610Z,7.00
2023-05-04T14:49:37.214Z,9.70
2023-05-04T14:53:04.801Z,8.20
2023-05-04T14:56:31.629Z,9.10
2023-05-04T14:59:58.582Z,14.40
2023-05-04T15:03:26.120Z,13.00
2023-05-04T15:06:53.536Z,12.40
2023-05-04T15:10:21.412Z,6.10
2023-05-04T15:13:48.394Z,11.90
2023-05-04T15:17:17.206Z,6.90
2023-05-04T15:20:45.170Z,8.00
2023-05-04T15:24:12.068Z,6.50
2023-05-04T15:27:39.710Z,6.30
2023-05-04T15:31:07.482Z,7.20
2023-05-04T15:34:34.523Z,9.80
2023-05-04T15:38:02.136Z,12.50
2023-05-04T15:41:29.076Z,8.90
2023-05-04T15:44:56.292Z,8.30
2023-05-04T15:48:23.573Z,11.90
2023-05-04T15:51:50.672Z,24.10
2023-05-04T15:55:25.937Z,19.00
2023-05-04T15:58:53.484Z,13.10
2023-05-04T16:02:21.161Z,9.70
2023-05-04T16:05:51.157Z,6.40
2023-05-04T16:09:20.961Z,6.80
2023-05-04T16:12:50.422Z,13.30
2023-05-04T16:16:18.174Z,8.70
2023-05-04T16:19:46.288Z,13.20
2023-05-04T16:23:20.023Z,9.10
2023-05-04T16:26:51.260Z,14.00
2023-05-04T16:30:20.220Z,5.20
2023-05-04T16:33:50.581Z,22.80
2023-05-04T16:37:20.246Z,9.20
2023-05-04T16:44:17.631Z,11.50
2023-05-04T16:51:16.792Z,5.80
2023-05-04T16:54:49.029Z,8.00
2023-05-04T16:58:21.384Z,7.10
2023-05-04T17:01:51.780Z,6.10
2023-05-04T17:05:21.713Z,7.50
2023-05-04T17:08:51.172Z,7.50
2023-05-04T17:12:20.502Z,7.60
2023-05-04T17:15:49.653Z,10.90
2023-05-04T17:19:17.534Z,8.40
2023-05-04T17:22:48.248Z,36.50
2023-05-04T17:26:15.934Z,61.70
2023-05-04T17:29:44.229Z,97.50
2023-05-04T17:33:13.874Z,51.50
2023-05-04T17:36:42.018Z,40.00
2023-05-04T17:40:12.201Z,23.30
2023-05-04T17:43:41.603Z,17.70
2023-05-04T17:47:10.375Z,22.40
2023-05-04T17:50:40.242Z,36.10
2023-05-04T17:57:35.490Z,25.60
2023-05-04T18:01:05.109Z,19.40
2023-05-04T18:04:35.340Z,23.60
2023-05-04T18:08:05.264Z,40.30
2023-05-04T18:11:33.385Z,36.80
2023-05-04T18:15:03.925Z,42.50
2023-05-04T18:18:31.425Z,42.10
2023-05-04T18:21:59.273Z,19.50
2023-05-04T18:25:27.751Z,25.80
2023-05-04T18:28:59.215Z,8.30
2023-05-04T18:32:34.638Z,20.80
2023-05-04T18:36:02.312Z,19.70
2023-05-04T18:39:30.248Z,27.80
2023-05-04T18:42:57.599Z,30.60
2023-05-04T18:46:25.112Z,41.90
2023-05-04T18:49:57.697Z,25.70
2023-05-04T18:53:26.223Z,26.30
2023-05-04T18:56:54.089Z,15.40
2023-05-04T19:00:22.936Z,17.00
2023-05-04T19:03:50.077Z,24.30
2023-05-04T19:07:17.866Z,20.10
2023-05-04T19:10:45.820Z,18.60
2023-05-04T19:14:15.209Z,15.00
2023-05-04T19:17:42.270Z,41.40
2023-05-04T19:21:09.623Z,28.70
2023-05-04T19:24:37.876Z,20.30
2023-05-04T19:28:08.976Z,27.00
2023-05-04T19:31:36.342Z,18.30
2023-05-04T19:35:06.543Z,27.60
2023-05-04T19:38:33.544Z,26.10
2023-05-04T19:42:00.525Z,22.30
2023-05-04T19:45:27.403Z,33.50
2023-05-04T19:48:54.661Z,46.50
2023-05-04T19:52:21.779Z,44.50
2023-05-04T19:55:48.631Z,39.60
2023-05-04T19:59:15.605Z,58.10
2023-05-04T20:02:42.500Z,39.50
2023-05-04T20:06:09.616Z,47.10
2023-05-04T20:09:36.512Z,25.30
2023-05-04T20:13:03.643Z,26.20
2023-05-04T20:16:31.024Z,30.10
2023-05-04T20:19:58.094Z,29.40
2023-05-04T20:23:24.966Z,31.10
2023-05-04T20:26:51.857Z,27.70
2023-05-04T20:30:19.087Z,26.00
2023-05-04T20:33:46.237Z,33.00
2023-05-04T20:37:13.305Z,31.20
2023-05-04T20:40:40.686Z,31.50
2023-05-04T20:44:08.055Z,20.60
2023-05-04T20:47:35.073Z,27.70
2023-05-04T20:51:13.353Z,26.10
2023-05-04T20:54:42.376Z,35.60
2023-05-04T20:58:09.143Z,28.20
2023-05-04T21:01:36.083Z,22.20
2023-05-04T21:05:03.577Z,26.30
2023-05-04T21:08:30.762Z,24.90
2023-05-04T21:11:58.532Z,34.30
2023-05-04T21:15:25.517Z,36.60
2023-05-04T21:18:52.504Z,32.50
2023-05-04T21:22:19.737Z,35.50
2023-05-04T21:25:46.925Z,30.20
2023-05-04T21:29:17.161Z,26.60
2023-05-04T21:32:44.206Z,31.80
2023-05-04T21:36:15.553Z,25.90
2023-05-04T21:39:42.826Z,25.10
2023-05-04T21:43:09.921Z,24.10
2023-05-04T21:46:36.815Z,32.80
2023-05-04T21:50:04.310Z,27.20
2023-05-04T21:53:33.698Z,27.80
2023-05-04T21:57:00.444Z,27.50
2023-05-04T22:00:29.016Z,33.50
2023-05-04T22:03:55.914Z,33.10
2023-05-04T22:07:22.697Z,33.40
2023-05-04T22:10:52.378Z,27.40
2023-05-04T22:14:19.321Z,35.80
2023-05-04T22:17:46.335Z,41.50
2023-05-04T22:21:13.199Z,27.50
2023-05-04T22:24:40.483Z,29.60
2023-05-04T22:28:07.909Z,26.30
2023-05-04T22:31:34.785Z,25.50
2023-05-04T22:35:01.666Z,34.20
2023-05-04T22:38:29.763Z,29.40
2023-05-04T22:41:56.609Z,33.70
2023-05-04T22:45:24.027Z,31.50
2023-05-04T22:48:51.042Z,37.80
2023-05-04T22:52:17.900Z,33.10
2023-05-04T22:55:44.851Z,29.20
2023-05-04T22:59:11.746Z,25.90
2023-05-04T23:02:38.991Z,25.00
2023-05-04T23:06:06.567Z,29.30
2023-05-04T23:09:34.276Z,19.00
2023-05-04T23:13:02.287Z,21.60
2023-05-04T23:16:29.480Z,21.10
2023-05-04T23:19:56.483Z,20.30
2023-05-04T23:23:23.409Z,22.90
2023-05-04T23:26:50.250Z,18.70
2023-05-04T23:30:17.723Z,19.80
2023-05-04T23:33:44.592Z,20.00
2023-05-04T23:37:11.473Z,20.30
2023-05-04T23:40:39.147Z,19.60
2023-05-04T23:44:06.343Z,20.40
2023-05-04T23:47:33.633Z,17.00
2023-05-04T23:51:03.976Z,17.20
2023-05-04T23:54:31.697Z,19.60
2023-05-04T23:57:58.690Z,21.20
